sensor_id;sensor_type;location;lat;lon;timestamp;pressure;altitude;pressure_sealevel;temperature;humidity
15229;BME280;7717;47.792;12.076;2023-04-01T00:00:28;95004.44;;;9.51;100.00
15229;BME280;7717;47.792;12.076;2023-04-01T00:02:53;95001.41;;;9.32;100.00
15229;BME280;7717;47.792;12.076;2023-04-01T00:05:18;95003.13;;;9.31;100.00
15229;BME280;7717;47.792;12.076;2023-04-01T00:07:44;95003.94;;;9.33;100.00
15229;BME280;7717;47.792;12.076;2023-04-01T00:10:11;95020.94;;;9.34;100.00
15229;BME280;7717;47.792;12.076;2023-04-01T00:12:37;95003.59;;;9.52;100.00
15229;BME280;7717;47.792;12.076;2023-04-01T00:15:08;95006.31;;;9.43;100.00
15229;BME280;7717;47.792;12.076;2023-04-01T00:17:34;95025.81;;;9.47;100.00
15229;BME280;7717;47.792;12.076;2023-04-01T00:20:00;95039.78;;;9.29;100.00
15229;BME280;7717;47.792;12.076;2023-04-01T00:22:26;95044.25;;;9.17;100.00
15229;BME280;7717;47.792;12.076;2023-04-01T00:24:52;95064.53;;;8.72;100.00
15229;BME280;7717;47.792;12.076;2023-04-01T00:27:18;95063.78;;;8.65;100.00
15229;BME280;7717;47.792;12.076;2023-04-01T00:29:45;95077.78;;;8.37;100.00
15229;BME280;7717;47.792;12.076;2023-04-01T00:32:10;95079.63;;;8.27;100.00
15229;BME280;7717;47.792;12.076;2023-04-01T00:34:36;95062.66;;;8.24;100.00
15229;BME280;7717;47.792;12.076;2023-04-01T00:37:03;95063.63;;;8.14;100.00
15229;BME280;7717;47.792;12.076;2023-04-01T00:39:29;95063.06;;;7.90;100.00
15229;BME280;7717;47.792;12.076;2023-04-01T00:41:56;95075.94;;;7.80;100.00
15229;BME280;7717;47.792;12.076;2023-04-01T00:44:28;95071.09;;;7.60;100.00
15229;BME280;7717;47.792;12.076;2023-04-01T00:46:54;95055.88;;;7.53;100.00
15229;BME280;7717;47.792;12.076;2023-04-01T00:49:25;95056.69;;;7.55;100.00
15229;BME280;7717;47.792;12.076;2023-04-01T00:51:53;95052.44;;;7.56;100.00
15229;BME280;7717;47.792;12.076;2023-04-01T00:54:21;95022.78;;;7.53;100.00
15229;BME280;7717;47.792;12.076;2023-04-01T00:56:51;95022.69;;;7.63;100.00
15229;BME280;7717;47.792;12.076;2023-04-01T00:59:27;95025.25;;;7.61;100.00
15229;BME280;7717;47.792;12.076;2023-04-01T01:01:54;95009.97;;;7.60;100.00
15229;BME280;7717;47.792;12.076;2023-04-01T01:04:26;95002.34;;;7.60;100.00
15229;BME280;7717;47.792;12.076;2023-04-01T01:09:38;95000.97;;;7.31;100.00
15229;BME280;7717;47.792;12.076;2023-04-01T01:12:23;94999.38;;;7.24;100.00
15229;BME280;7717;47.792;12.076;2023-04-01T01:17:46;95002.03;;;7.10;100.00
15229;BME280;7717;47.792;12.076;2023-04-01T01:28:57;95002.19;;;6.96;100.00
15229;BME280;7717;47.792;12.076;2023-04-01T01:31:50;94992.75;;;7.04;100.00
15229;BME280;7717;47.792;12.076;2023-04-01T01:37:26;94996.69;;;7.33;100.00
15229;BME280;7717;47.792;12.076;2023-04-01T01:40:05;94993.28;;;7.34;100.00
15229;BME280;7717;47.792;12.076;2023-04-01T01:42:35;94996.50;;;7.50;100.00
15229;BME280;7717;47.792;12.076;2023-04-01T01:45:04;94998.09;;;7.60;100.00
15229;BME280;7717;47.792;12.076;2023-04-01T01:47:31;94983.03;;;7.42;100.00
15229;BME280;7717;47.792;12.076;2023-04-01T01:49:59;94977.09;;;7.43;100.00
15229;BME280;7717;47.792;12.076;2023-04-01T01:52:27;94976.41;;;7.28;100.00
15229;BME280;7717;47.792;12.076;2023-04-01T01:54:54;94989.22;;;7.20;100.00
15229;BME280;7717;47.792;12.076;2023-04-01T01:57:26;94986.38;;;7.45;100.00
15229;BME280;7717;47.792;12.076;2023-04-01T01:59:58;94994.91;;;7.43;100.00
15229;BME280;7717;47.792;12.076;2023-04-01T02:02:25;94993.34;;;7.29;100.00
15229;BME280;7717;47.792;12.076;2023-04-01T02:04:52;95006.94;;;7.28;100.00
15229;BME280;7717;47.792;12.076;2023-04-01T02:07:25;95001.06;;;7.20;100.00
15229;BME280;7717;47.792;12.076;2023-04-01T02:09:52;95004.47;;;7.20;100.00
15229;BME280;7717;47.792;12.076;2023-04-01T02:12:19;95018.22;;;7.01;100.00
15229;BME280;7717;47.792;12.076;2023-04-01T02:15:03;95018.25;;;6.99;100.00
15229;BME280;7717;47.792;12.076;2023-04-01T02:17:32;95014.84;;;7.02;100.00
15229;BME280;7717;47.792;12.076;2023-04-01T02:20:03;95023.34;;;6.98;100.00
15229;BME280;7717;47.792;12.076;2023-04-01T02:22:32;95019.13;;;6.94;100.00
15229;BME280;7717;47.792;12.076;2023-04-01T02:25:04;95014.69;;;7.17;100.00
15229;BME280;7717;47.792;12.076;2023-04-01T02:27:31;95027.47;;;7.11;100.00
15229;BME280;7717;47.792;12.076;2023-04-01T02:29:56;95023.09;;;7.26;100.00
15229;BME280;7717;47.792;12.076;2023-04-01T02:32:23;95014.53;;;7.30;100.00
15229;BME280;7717;47.792;12.076;2023-04-01T02:34:49;95014.88;;;6.97;100.00
15229;BME280;7717;47.792;12.076;2023-04-01T02:37:15;95010.56;;;7.04;100.00
15229;BME280;7717;47.792;12.076;2023-04-01T02:39:40;95006.38;;;6.97;100.00
15229;BME280;7717;47.792;12.076;2023-04-01T02:42:07;94997.81;;;7.07;100.00
15229;BME280;7717;47.792;12.076;2023-04-01T02:44:33;95019.03;;;7.05;100.00
15229;BME280;7717;47.792;12.076;2023-04-01T02:46:58;95018.97;;;7.11;100.00
15229;BME280;7717;47.792;12.076;2023-04-01T02:49:24;95015.28;;;7.43;100.00
15229;BME280;7717;47.792;12.076;2023-04-01T02:51:49;95024.69;;;7.33;100.00
15229;BME280;7717;47.792;12.076;2023-04-01T02:54:14;95026.38;;;7.35;100.00
15229;BME280;7717;47.792;12.076;2023-04-01T02:56:40;95028.28;;;7.15;100.00
15229;BME280;7717;47.792;12.076;2023-04-01T02:59:05;95037.66;;;7.11;100.00
15229;BME280;7717;47.792;12.076;2023-04-01T03:01:31;95043.66;;;7.02;100.00
15229;BME280;7717;47.792;12.076;2023-04-01T03:03:56;95049.69;;;6.92;100.00
15229;BME280;7717;47.792;12.076;2023-04-01T03:06:22;95050.69;;;6.74;100.00
15229;BME280;7717;47.792;12.076;2023-04-01T03:08:47;95045.53;;;6.83;100.00
15229;BME280;7717;47.792;12.076;2023-04-01T03:11:13;95054.84;;;6.84;100.00
15229;BME280;7717;47.792;12.076;2023-04-01T03:13:38;95060.69;;;6.94;100.00
15229;BME280;7717;47.792;12.076;2023-04-01T03:16:04;95053.19;;;6.79;100.00
15229;BME280;7717;47.792;12.076;2023-04-01T03:18:30;95054.00;;;6.82;100.00
15229;BME280;7717;47.792;12.076;2023-04-01T03:20:55;95065.13;;;6.74;100.00
15229;BME280;7717;47.792;12.076;2023-04-01T03:23:20;95068.41;;;6.85;100.00
15229;BME280;7717;47.792;12.076;2023-04-01T03:25:47;95053.66;;;7.23;100.00
15229;BME280;7717;47.792;12.076;2023-04-01T03:28:13;95045.47;;;7.72;100.00
15229;BME280;7717;47.792;12.076;2023-04-01T03:30:39;95042.88;;;7.75;100.00
15229;BME280;7717;47.792;12.076;2023-04-01T03:33:06;95023.09;;;7.97;100.00
15229;BME280;7717;47.792;12.076;2023-04-01T03:35:32;95030.59;;;8.09;100.00
15229;BME280;7717;47.792;12.076;2023-04-01T03:37:57;95027.75;;;8.26;100.00
15229;BME280;7717;47.792;12.076;2023-04-01T03:40:23;95030.22;;;8.33;100.00
15229;BME280;7717;47.792;12.076;2023-04-01T03:42:49;95030.22;;;8.34;100.00
15229;BME280;7717;47.792;12.076;2023-04-01T03:45:15;95033.72;;;8.27;100.00
15229;BME280;7717;47.792;12.076;2023-04-01T03:47:40;95033.78;;;8.22;100.00
15229;BME280;7717;47.792;12.076;2023-04-01T03:50:07;95024.63;;;8.07;100.00
15229;BME280;7717;47.792;12.076;2023-04-01T03:52:33;95026.28;;;8.11;100.00
15229;BME280;7717;47.792;12.076;2023-04-01T03:54:59;95036.41;;;8.18;100.00
15229;BME280;7717;47.792;12.076;2023-04-01T03:57:24;95034.94;;;7.98;100.00
15229;BME280;7717;47.792;12.076;2023-04-01T03:59:50;95048.59;;;7.19;100.00
15229;BME280;7717;47.792;12.076;2023-04-01T04:02:15;95057.97;;;7.14;100.00
15229;BME280;7717;47.792;12.076;2023-04-01T04:04:41;95070.69;;;7.16;100.00
15229;BME280;7717;47.792;12.076;2023-04-01T04:07:06;95066.53;;;7.07;100.00
15229;BME280;7717;47.792;12.076;2023-04-01T04:09:32;95059.00;;;6.95;100.00
15229;BME280;7717;47.792;12.076;2023-04-01T04:11:58;95053.09;;;6.91;100.00
15229;BME280;7717;47.792;12.076;2023-04-01T04:14:24;95050.66;;;6.77;100.00
15229;BME280;7717;47.792;12.076;2023-04-01T04:16:49;95052.38;;;6.78;100.00
15229;BME280;7717;47.792;12.076;2023-04-01T04:19:14;95053.94;;;6.92;100.00
15229;BME280;7717;47.792;12.076;2023-04-01T04:21:41;95066.69;;;6.89;100.00
15229;BME280;7717;47.792;12.076;2023-04-01T04:24:07;95058.94;;;6.99;100.00
15229;BME280;7717;47.792;12.076;2023-04-01T04:26:32;95061.31;;;7.19;100.00
15229;BME280;7717;47.792;12.076;2023-04-01T04:28:57;95038.47;;;7.13;100.00
15229;BME280;7717;47.792;12.076;2023-04-01T04:31:24;95057.97;;;7.16;100.00
15229;BME280;7717;47.792;12.076;2023-04-01T04:33:50;95065.66;;;7.08;100.00
15229;BME280;7717;47.792;12.076;2023-04-01T04:36:17;95077.59;;;7.01;100.00
15229;BME280;7717;47.792;12.076;2023-04-01T04:38:42;95081.75;;;7.10;100.00
15229;BME280;7717;47.792;12.076;2023-04-01T04:41:09;95071.72;;;6.95;100.00
15229;BME280;7717;47.792;12.076;2023-04-01T04:43:35;95085.41;;;6.80;100.00
15229;BME280;7717;47.792;12.076;2023-04-01T04:46:05;95074.25;;;6.95;100.00
15229;BME280;7717;47.792;12.076;2023-04-01T04:48:30;95063.38;;;6.79;100.00
15229;BME280;7717;47.792;12.076;2023-04-01T04:50:56;95070.16;;;6.81;100.00
15229;BME280;7717;47.792;12.076;2023-04-01T04:53:21;95078.53;;;6.90;100.00
15229;BME280;7717;47.792;12.076;2023-04-01T04:55:48;95062.53;;;6.80;100.00
15229;BME280;7717;47.792;12.076;2023-04-01T04:58:15;95069.44;;;6.59;100.00
15229;BME280;7717;47.792;12.076;2023-04-01T05:00:41;95077.97;;;6.54;100.00
15229;BME280;7717;47.792;12.076;2023-04-01T05:03:06;95081.25;;;6.70;100.00
15229;BME280;7717;47.792;12.076;2023-04-01T05:05:31;95075.13;;;6.89;100.00
15229;BME280;7717;47.792;12.076;2023-04-01T05:07:57;95068.44;;;6.80;100.00
15229;BME280;7717;47.792;12.076;2023-04-01T05:10:25;95069.94;;;7.01;100.00
15229;BME280;7717;47.792;12.076;2023-04-01T05:12:50;95064.03;;;7.01;100.00
15229;BME280;7717;47.792;12.076;2023-04-01T05:15:16;95065.63;;;7.13;100.00
15229;BME280;7717;47.792;12.076;2023-04-01T05:17:41;95057.94;;;7.20;100.00
15229;BME280;7717;47.792;12.076;2023-04-01T05:20:07;95066.31;;;7.29;100.00
15229;BME280;7717;47.792;12.076;2023-04-01T05:22:32;95065.41;;;7.34;100.00
15229;BME280;7717;47.792;12.076;2023-04-01T05:24:58;95074.88;;;7.18;100.00
15229;BME280;7717;47.792;12.076;2023-04-01T05:27:23;95052.94;;;7.11;100.00
15229;BME280;7717;47.792;12.076;2023-04-01T05:29:49;95083.50;;;7.07;100.00
15229;BME280;7717;47.792;12.076;2023-04-01T05:32:14;95068.06;;;7.24;100.00
15229;BME280;7717;47.792;12.076;2023-04-01T05:34:40;95068.75;;;7.39;100.00
15229;BME280;7717;47.792;12.076;2023-04-01T05:37:05;95073.75;;;7.50;100.00
15229;BME280;7717;47.792;12.076;2023-04-01T05:39:36;95074.50;;;7.59;100.00
15229;BME280;7717;47.792;12.076;2023-04-01T05:42:03;95080.59;;;7.42;100.00
15229;BME280;7717;47.792;12.076;2023-04-01T05:44:28;95076.25;;;7.55;100.00
15229;BME280;7717;47.792;12.076;2023-04-01T05:46:53;95059.97;;;7.67;100.00
15229;BME280;7717;47.792;12.076;2023-04-01T05:49:19;95076.81;;;7.80;100.00
15229;BME280;7717;47.792;12.076;2023-04-01T05:51:44;95068.97;;;7.97;100.00
15229;BME280;7717;47.792;12.076;2023-04-01T05:54:09;95073.59;;;8.31;100.00
15229;BME280;7717;47.792;12.076;2023-04-01T05:56:35;95078.41;;;8.54;100.00
15229;BME280;7717;47.792;12.076;2023-04-01T05:59:00;95062.34;;;8.48;100.00
15229;BME280;7717;47.792;12.076;2023-04-01T06:01:26;95067.72;;;8.87;100.00
15229;BME280;7717;47.792;12.076;2023-04-01T06:03:51;95044.81;;;8.82;100.00
15229;BME280;7717;47.792;12.076;2023-04-01T06:06:28;95051.19;;;9.08;100.00
15229;BME280;7717;47.792;12.076;2023-04-01T06:08:56;95045.63;;;8.84;100.00
15229;BME280;7717;47.792;12.076;2023-04-01T06:22:48;95033.19;;;9.62;100.00
15229;BME280;7717;47.792;12.076;2023-04-01T06:30:57;95052.00;;;10.42;100.00
15229;BME280;7717;47.792;12.076;2023-04-01T06:42:08;95035.84;;;11.45;100.00
15229;BME280;7717;47.792;12.076;2023-04-01T06:45:14;95016.28;;;11.74;100.00
15229;BME280;7717;47.792;12.076;2023-04-01T06:53:06;95007.88;;;11.69;100.00
15229;BME280;7717;47.792;12.076;2023-04-01T06:55:41;95032.00;;;11.92;100.00
15229;BME280;7717;47.792;12.076;2023-04-01T06:58:22;95004.78;;;12.17;100.00
15229;BME280;7717;47.792;12.076;2023-04-01T07:00:53;95040.38;;;12.28;100.00
15229;BME280;7717;47.792;12.076;2023-04-01T07:03:36;95027.44;;;11.71;100.00
15229;BME280;7717;47.792;12.076;2023-04-01T07:06:17;95039.31;;;11.76;100.00
15229;BME280;7717;47.792;12.076;2023-04-01T07:08:44;95042.13;;;12.28;100.00
15229;BME280;7717;47.792;12.076;2023-04-01T07:11:19;95028.72;;;11.88;100.00
15229;BME280;7717;47.792;12.076;2023-04-01T07:14:32;95035.75;;;11.80;100.00
15229;BME280;7717;47.792;12.076;2023-04-01T07:16:49;95025.88;;;11.99;100.00
15229;BME280;7717;47.792;12.076;2023-04-01T07:19:33;95034.69;;;12.18;100.00
15229;BME280;7717;47.792;12.076;2023-04-01T07:22:09;95038.69;;;12.29;100.00
15229;BME280;7717;47.792;12.076;2023-04-01T07:24:44;95035.19;;;12.01;100.00
15229;BME280;7717;47.792;12.076;2023-04-01T07:27:13;95049.22;;;12.48;100.00
15229;BME280;7717;47.792;12.076;2023-04-01T07:29:38;95042.06;;;12.57;100.00
15229;BME280;7717;47.792;12.076;2023-04-01T07:44:42;95061.00;;;11.95;100.00
15229;BME280;7717;47.792;12.076;2023-04-01T07:47:45;95060.78;;;12.03;100.00
15229;BME280;7717;47.792;12.076;2023-04-01T07:50:31;95070.50;;;12.51;100.00
15229;BME280;7717;47.792;12.076;2023-04-01T08:03:31;95077.28;;;12.54;100.00
15229;BME280;7717;47.792;12.076;2023-04-01T08:11:14;95080.97;;;13.00;100.00
15229;BME280;7717;47.792;12.076;2023-04-01T08:17:06;94963.25;;;13.13;90.78
15229;BME280;7717;47.792;12.076;2023-04-01T08:22:27;95042.84;;;13.14;96.37
15229;BME280;7717;47.792;12.076;2023-04-01T08:24:55;95032.56;;;13.41;97.97
15229;BME280;7717;47.792;12.076;2023-04-01T08:27:34;95007.09;;;13.59;92.69
15229;BME280;7717;47.792;12.076;2023-04-01T08:30:16;94891.22;;;13.16;84.57
15229;BME280;7717;47.792;12.076;2023-04-01T08:32:47;94999.22;;;13.87;90.62
15229;BME280;7717;47.792;12.076;2023-04-01T08:37:48;95036.38;;;13.78;97.63
15229;BME280;7717;47.792;12.076;2023-04-01T08:40:28;95041.06;;;13.67;96.55
15229;BME280;7717;47.792;12.076;2023-04-01T08:51:19;94896.91;;;14.60;82.53
15229;BME280;7717;47.792;12.076;2023-04-01T08:56:34;94891.91;;;13.45;79.34
15229;BME280;7717;47.792;12.076;2023-04-01T09:02:05;94774.97;;;19.13;71.64
15229;BME280;7717;47.792;12.076;2023-04-01T09:07:12;94929.34;;;17.29;77.22
15229;BME280;7717;47.792;12.076;2023-04-01T09:10:13;94759.91;;;17.54;66.79
15229;BME280;7717;47.792;12.076;2023-04-01T09:16:13;94923.19;;;15.09;73.52
15229;BME280;7717;47.792;12.076;2023-04-01T09:19:09;94842.34;;;15.31;68.57
15229;BME280;7717;47.792;12.076;2023-04-01T09:27:35;94682.47;;;19.81;60.07
15229;BME280;7717;47.792;12.076;2023-04-01T09:38:30;94740.38;;;18.69;60.93
15229;BME280;7717;47.792;12.076;2023-04-01T09:52:29;94936.78;;;16.83;71.10
15229;BME280;7717;47.792;12.076;2023-04-01T09:55:21;94821.06;;;16.19;63.10
15229;BME280;7717;47.792;12.076;2023-04-01T10:09:26;94826.75;;;16.26;63.98
15229;BME280;7717;47.792;12.076;2023-04-01T10:21:07;94810.41;;;16.78;63.47
15229;BME280;7717;47.792;12.076;2023-04-01T10:24:05;94816.66;;;16.74;63.93
15229;BME280;7717;47.792;12.076;2023-04-01T10:35:20;94862.63;;;16.50;67.31
15229;BME280;7717;47.792;12.076;2023-04-01T10:43:38;94745.22;;;16.40;60.31
15229;BME280;7717;47.792;12.076;2023-04-01T10:57:28;94768.53;;;16.71;61.79
15229;BME280;7717;47.792;12.076;2023-04-01T11:14:53;94809.94;;;14.67;63.35
15229;BME280;7717;47.792;12.076;2023-04-01T11:26:04;94908.91;;;13.95;67.75
15229;BME280;7717;47.792;12.076;2023-04-01T11:28:53;94883.81;;;13.78;65.89
15229;BME280;7717;47.792;12.076;2023-04-01T11:31:33;94928.09;;;13.86;68.41
15229;BME280;7717;47.792;12.076;2023-04-01T11:44:46;94916.16;;;15.13;68.89
15229;BME280;7717;47.792;12.076;2023-04-01T11:56:01;94844.06;;;15.88;64.70
15229;BME280;7717;47.792;12.076;2023-04-01T11:58:46;94889.28;;;15.96;67.68
15229;BME280;7717;47.792;12.076;2023-04-01T12:01:29;94900.47;;;15.76;68.51
15229;BME280;7717;47.792;12.076;2023-04-01T12:04:11;94924.03;;;16.26;70.28
15229;BME280;7717;47.792;12.076;2023-04-01T12:17:49;94871.22;;;15.77;65.93
15229;BME280;7717;47.792;12.076;2023-04-01T12:20:48;94855.09;;;15.72;64.55
15229;BME280;7717;47.792;12.076;2023-04-01T12:26:19;94880.13;;;16.97;65.56
15229;BME280;7717;47.792;12.076;2023-04-01T12:39:51;94973.44;;;15.20;68.91
15229;BME280;7717;47.792;12.076;2023-04-01T12:50:42;94993.88;;;15.24;69.59
15229;BME280;7717;47.792;12.076;2023-04-01T12:53:34;94967.38;;;15.41;67.52
15229;BME280;7717;47.792;12.076;2023-04-01T12:56:14;94987.44;;;14.71;68.68
15229;BME280;7717;47.792;12.076;2023-04-01T12:58:49;95024.31;;;14.50;71.00
15229;BME280;7717;47.792;12.076;2023-04-01T13:01:23;95050.38;;;14.64;73.36
15229;BME280;7717;47.792;12.076;2023-04-01T13:17:32;95141.91;;;12.95;79.81
15229;BME280;7717;47.792;12.076;2023-04-01T13:27:51;95122.06;;;12.72;85.27
15229;BME280;7717;47.792;12.076;2023-04-01T13:30:25;95122.78;;;12.17;85.82
15229;BME280;7717;47.792;12.076;2023-04-01T13:33:04;95112.78;;;12.68;86.65
15229;BME280;7717;47.792;12.076;2023-04-01T13:44:56;95163.88;;;12.77;90.19
15229;BME280;7717;47.792;12.076;2023-04-01T14:01:42;95126.97;;;12.51;95.88
15229;BME280;7717;47.792;12.076;2023-04-01T14:04:27;95134.47;;;12.28;94.63
15229;BME280;7717;47.792;12.076;2023-04-01T14:20:15;95162.53;;;11.68;98.47
15229;BME280;7717;47.792;12.076;2023-04-01T14:25:45;95146.16;;;11.39;98.46
15229;BME280;7717;47.792;12.076;2023-04-01T14:28:22;95155.19;;;11.54;99.64
15229;BME280;7717;47.792;12.076;2023-04-01T14:31:41;95143.50;;;11.77;98.83
15229;BME280;7717;47.792;12.076;2023-04-01T14:34:21;95155.13;;;11.57;98.37
15229;BME280;7717;47.792;12.076;2023-04-01T14:36:51;95147.44;;;11.23;99.48
15229;BME280;7717;47.792;12.076;2023-04-01T14:39:44;95158.09;;;11.04;100.00
15229;BME280;7717;47.792;12.076;2023-04-01T14:45:24;95147.94;;;11.01;99.91
15229;BME280;7717;47.792;12.076;2023-04-01T14:47:54;95148.34;;;10.83;98.74
15229;BME280;7717;47.792;12.076;2023-04-01T14:50:28;95145.13;;;10.74;100.00
15229;BME280;7717;47.792;12.076;2023-04-01T15:03:58;95158.28;;;10.57;100.00
15229;BME280;7717;47.792;12.076;2023-04-01T15:06:40;95159.78;;;10.68;100.00
15229;BME280;7717;47.792;12.076;2023-04-01T15:12:08;95156.78;;;10.88;100.00
15229;BME280;7717;47.792;12.076;2023-04-01T15:14:57;95164.78;;;10.72;100.00
15229;BME280;7717;47.792;12.076;2023-04-01T15:20:51;95166.34;;;10.37;100.00
15229;BME280;7717;47.792;12.076;2023-04-01T15:23:41;95174.75;;;10.46;100.00
15229;BME280;7717;47.792;12.076;2023-04-01T15:32:08;95216.25;;;9.65;100.00
15229;BME280;7717;47.792;12.076;2023-04-01T15:42:53;95200.50;;;9.38;100.00
15229;BME280;7717;47.792;12.076;2023-04-01T15:47:59;95162.78;;;9.52;100.00
15229;BME280;7717;47.792;12.076;2023-04-01T15:55:52;95175.19;;;9.76;100.00
15229;BME280;7717;47.792;12.076;2023-04-01T15:58:46;95160.91;;;10.09;100.00
15229;BME280;7717;47.792;12.076;2023-04-01T16:03:57;95145.50;;;10.56;100.00
15229;BME280;7717;47.792;12.076;2023-04-01T16:12:15;95138.66;;;11.33;100.00
15229;BME280;7717;47.792;12.076;2023-04-01T16:14:45;95148.94;;;11.31;100.00
15229;BME280;7717;47.792;12.076;2023-04-01T16:20:07;95162.78;;;11.23;100.00
15229;BME280;7717;47.792;12.076;2023-04-01T16:22:52;95158.03;;;11.07;100.00
15229;BME280;7717;47.792;12.076;2023-04-01T16:25:39;95167.50;;;11.04;100.00
15229;BME280;7717;47.792;12.076;2023-04-01T16:31:08;95171.94;;;12.03;100.00
15229;BME280;7717;47.792;12.076;2023-04-01T16:42:12;95171.22;;;11.62;97.22
15229;BME280;7717;47.792;12.076;2023-04-01T16:44:57;95184.44;;;11.80;99.14
15229;BME280;7717;47.792;12.076;2023-04-01T16:47:40;95179.09;;;11.55;97.82
15229;BME280;7717;47.792;12.076;2023-04-01T16:50:11;95198.91;;;11.48;100.00
15229;BME280;7717;47.792;12.076;2023-04-01T16:55:34;95181.16;;;11.04;100.00
15229;BME280;7717;47.792;12.076;2023-04-01T16:58:01;95208.31;;;11.11;100.00
15229;BME280;7717;47.792;12.076;2023-04-01T17:00:49;95206.16;;;10.93;100.00
15229;BME280;7717;47.792;12.076;2023-04-01T17:03:38;95199.97;;;11.02;99.64
15229;BME280;7717;47.792;12.076;2023-04-01T17:12:02;95207.50;;;10.69;100.00
15229;BME280;7717;47.792;12.076;2023-04-01T17:14:57;95202.59;;;10.58;100.00
15229;BME280;7717;47.792;12.076;2023-04-01T17:30:58;95208.19;;;10.35;100.00
15229;BME280;7717;47.792;12.076;2023-04-01T17:36:16;95209.19;;;10.26;99.86
15229;BME280;7717;47.792;12.076;2023-04-01T17:41:31;95222.13;;;10.17;100.00
15229;BME280;7717;47.792;12.076;2023-04-01T17:44:24;95224.75;;;10.14;100.00
15229;BME280;7717;47.792;12.076;2023-04-01T17:49:57;95212.44;;;9.87;100.00
15229;BME280;7717;47.792;12.076;2023-04-01T17:52:55;95228.88;;;9.72;100.00
15229;BME280;7717;47.792;12.076;2023-04-01T17:55:44;95226.81;;;9.93;100.00
15229;BME280;7717;47.792;12.076;2023-04-01T17:58:18;95247.53;;;9.78;100.00
15229;BME280;7717;47.792;12.076;2023-04-01T18:01:12;95248.81;;;9.52;100.00
15229;BME280;7717;47.792;12.076;2023-04-01T18:06:33;95264.91;;;8.96;100.00
15229;BME280;7717;47.792;12.076;2023-04-01T18:11:56;95255.72;;;8.86;100.00
15229;BME280;7717;47.792;12.076;2023-04-01T18:28:22;95240.00;;;9.14;100.00
15229;BME280;7717;47.792;12.076;2023-04-01T18:31:04;95251.44;;;9.47;100.00
15229;BME280;7717;47.792;12.076;2023-04-01T18:34:00;95258.63;;;9.22;100.00
15229;BME280;7717;47.792;12.076;2023-04-01T18:36:43;95252.75;;;9.14;100.00
15229;BME280;7717;47.792;12.076;2023-04-01T18:39:30;95271.53;;;9.11;100.00
15229;BME280;7717;47.792;12.076;2023-04-01T18:42:03;95260.31;;;9.22;100.00
15229;BME280;7717;47.792;12.076;2023-04-01T18:44:49;95267.69;;;9.42;100.00
15229;BME280;7717;47.792;12.076;2023-04-01T18:50:36;95271.09;;;9.41;100.00
15229;BME280;7717;47.792;12.076;2023-04-01T18:53:28;95275.75;;;9.12;100.00
15229;BME280;7717;47.792;12.076;2023-04-01T18:55:59;95283.84;;;8.81;100.00
15229;BME280;7717;47.792;12.076;2023-04-01T18:58:34;95292.44;;;8.71;100.00
15229;BME280;7717;47.792;12.076;2023-04-01T19:04:15;95294.34;;;8.55;100.00
15229;BME280;7717;47.792;12.076;2023-04-01T19:06:50;95291.94;;;8.38;100.00
15229;BME280;7717;47.792;12.076;2023-04-01T19:09:27;95302.13;;;8.40;100.00
15229;BME280;7717;47.792;12.076;2023-04-01T19:18:32;95300.47;;;8.33;100.00
15229;BME280;7717;47.792;12.076;2023-04-01T19:21:33;95308.94;;;8.39;100.00
15229;BME280;7717;47.792;12.076;2023-04-01T19:26:40;95304.50;;;8.60;100.00
15229;BME280;7717;47.792;12.076;2023-04-01T19:29:31;95314.84;;;8.46;100.00
15229;BME280;7717;47.792;12.076;2023-04-01T19:37:50;95317.41;;;8.40;100.00
15229;BME280;7717;47.792;12.076;2023-04-01T19:40:44;95314.97;;;8.27;100.00
15229;BME280;7717;47.792;12.076;2023-04-01T19:43:22;95318.34;;;8.31;100.00
15229;BME280;7717;47.792;12.076;2023-04-01T19:46:07;95313.31;;;8.22;100.00
15229;BME280;7717;47.792;12.076;2023-04-01T19:51:50;95314.34;;;8.04;100.00
15229;BME280;7717;47.792;12.076;2023-04-01T19:54:42;95306.66;;;8.11;100.00
15229;BME280;7717;47.792;12.076;2023-04-01T19:59:47;95309.91;;;8.24;100.00
15229;BME280;7717;47.792;12.076;2023-04-01T20:02:39;95314.19;;;8.22;100.00
15229;BME280;7717;47.792;12.076;2023-04-01T20:16:55;95319.94;;;8.41;100.00
15229;BME280;7717;47.792;12.076;2023-04-01T20:19:39;95321.75;;;8.30;100.00
15229;BME280;7717;47.792;12.076;2023-04-01T20:24:52;95321.84;;;8.21;100.00
15229;BME280;7717;47.792;12.076;2023-04-01T20:27:27;95320.88;;;8.31;100.00
15229;BME280;7717;47.792;12.076;2023-04-01T20:30:19;95312.50;;;8.21;100.00
15229;BME280;7717;47.792;12.076;2023-04-01T20:48:17;95334.03;;;7.89;100.00
15229;BME280;7717;47.792;12.076;2023-04-01T20:50:51;95333.13;;;7.90;100.00
15229;BME280;7717;47.792;12.076;2023-04-01T21:01:53;95336.56;;;7.89;100.00
15229;BME280;7717;47.792;12.076;2023-04-01T21:07:33;95333.41;;;7.56;100.00
15229;BME280;7717;47.792;12.076;2023-04-01T21:10:15;95341.75;;;7.77;100.00
15229;BME280;7717;47.792;12.076;2023-04-01T21:12:55;95343.44;;;7.75;100.00
15229;BME280;7717;47.792;12.076;2023-04-01T21:15:40;95340.88;;;7.78;100.00
15229;BME280;7717;47.792;12.076;2023-04-01T21:26:31;95348.50;;;7.81;100.00
15229;BME280;7717;47.792;12.076;2023-04-01T21:34:42;95359.69;;;7.59;100.00
15229;BME280;7717;47.792;12.076;2023-04-01T21:39:56;95354.63;;;7.55;100.00
15229;BME280;7717;47.792;12.076;2023-04-01T21:50:45;95353.81;;;7.50;100.00
15229;BME280;7717;47.792;12.076;2023-04-01T21:59:20;95351.19;;;7.63;100.00
15229;BME280;7717;47.792;12.076;2023-04-01T22:02:03;95357.22;;;7.46;100.00
15229;BME280;7717;47.792;12.076;2023-04-01T22:10:15;95368.13;;;7.70;100.00
15229;BME280;7717;47.792;12.076;2023-04-01T22:16:04;95373.22;;;7.68;100.00
15229;BME280;7717;47.792;12.076;2023-04-01T22:18:38;95369.94;;;7.49;100.00
15229;BME280;7717;47.792;12.076;2023-04-01T22:23:51;95383.47;;;7.56;100.00
15229;BME280;7717;47.792;12.076;2023-04-01T22:29:38;95384.31;;;7.60;100.00
15229;BME280;7717;47.792;12.076;2023-04-01T22:32:16;95387.78;;;7.46;100.00